Church Street, Georgia
Current Conditions -  °F | °C
As of 12:52 PM on Wednesday 26 Nov 2014 (Local Time) from KATL Reporting Station
Few Clouds Few Clouds  
Wind Chill: 54°   Ceiling: Unl
Heat Index: 54°   Visibility: 10mi
Dew Point: 18°   Wind: 15mph
Humidity: 24%   Direction: 310°NW
Pressure: 30.08"   Gusts: NA
Location:  33.559°N, 84.4436°W
Report Text: KATL 261752Z 31013KT 10SM FEW200 12/M08 A3008 RMK AO2 SLP188 T01221078 10128 20056 58001
Loading
Personal Weather Stations






























Interactive Weather Map New forecast layout! Learn more

10-Day Weather Forecast

Advertisements
Track Severe Weather on mobile